createdAt,value
2018-06-27T00:03:43.074Z,12.90
2018-06-27T00:07:47.577Z,12.90
2018-06-27T00:11:51.790Z,12.80
2018-06-27T00:15:56.279Z,12.90
2018-06-27T00:20:00.542Z,12.90
2018-06-27T00:24:04.903Z,12.80
2018-06-27T00:28:09.286Z,12.90
2018-06-27T00:32:13.829Z,12.90
2018-06-27T00:36:18.133Z,12.90
2018-06-27T00:40:22.529Z,13.10
2018-06-27T00:44:26.852Z,13.00
2018-06-27T00:48:31.251Z,13.00
2018-06-27T00:52:35.554Z,12.80
2018-06-27T00:56:41.597Z,12.90
2018-06-27T01:00:46.013Z,12.80
2018-06-27T01:04:50.393Z,12.70
2018-06-27T01:08:54.673Z,12.80
2018-06-27T01:12:59.066Z,12.80
2018-06-27T01:17:03.520Z,12.70
2018-06-27T01:21:07.754Z,12.70
2018-06-27T01:25:12.229Z,12.70
2018-06-27T01:29:16.451Z,12.70
2018-06-27T01:33:20.777Z,12.70
2018-06-27T01:37:25.232Z,12.80
2018-06-27T01:41:29.515Z,12.70
2018-06-27T01:45:33.749Z,12.70
2018-06-27T01:49:38.146Z,12.60
2018-06-27T01:53:42.354Z,12.50
2018-06-27T01:57:46.742Z,12.60
2018-06-27T02:01:51.131Z,12.60
2018-06-27T02:05:55.338Z,12.70
2018-06-27T02:09:59.691Z,12.60
2018-06-27T02:14:04.209Z,12.60
2018-06-27T02:18:08.509Z,12.50
2018-06-27T02:22:12.970Z,12.50
2018-06-27T02:26:17.246Z,12.40
2018-06-27T02:30:21.740Z,12.50
2018-06-27T02:34:25.949Z,12.30
2018-06-27T02:38:30.289Z,12.30
2018-06-27T02:42:34.638Z,12.20
2018-06-27T02:46:38.889Z,12.10
2018-06-27T02:50:43.384Z,12.30
2018-06-27T02:54:47.657Z,12.30
2018-06-27T02:58:51.896Z,12.40
2018-06-27T03:02:56.342Z,12.40
2018-06-27T03:07:00.637Z,12.40
2018-06-27T03:11:05.055Z,12.40
2018-06-27T03:15:10.135Z,12.50
2018-06-27T03:19:14.421Z,12.40
2018-06-27T03:23:18.823Z,12.30
2018-06-27T03:27:23.192Z,12.30
2018-06-27T03:31:27.464Z,12.30
2018-06-27T03:35:31.702Z,12.20
2018-06-27T03:39:35.945Z,12.20
2018-06-27T03:43:40.200Z,12.20
2018-06-27T03:47:44.538Z,12.30
2018-06-27T03:51:48.766Z,12.30
2018-06-27T03:55:53.078Z,12.30
2018-06-27T03:59:57.387Z,12.30
2018-06-27T04:04:01.641Z,12.30
2018-06-27T04:08:06.056Z,12.30
2018-06-27T04:12:10.307Z,12.40
2018-06-27T04:16:14.564Z,12.50
2018-06-27T04:20:18.932Z,12.50
2018-06-27T04:24:23.160Z,12.70
2018-06-27T04:28:29.110Z,12.60
2018-06-27T04:32:33.447Z,12.70
2018-06-27T04:36:37.707Z,12.80
2018-06-27T04:40:42.233Z,12.80
2018-06-27T04:44:46.549Z,12.80
2018-06-27T04:48:50.797Z,12.80
2018-06-27T04:52:55.410Z,12.90
2018-06-27T04:56:59.824Z,12.90
2018-06-27T05:01:04.225Z,12.90
2018-06-27T05:05:08.835Z,12.90
2018-06-27T05:09:13.107Z,12.90
2018-06-27T05:13:17.506Z,12.90
2018-06-27T05:17:21.935Z,12.90
2018-06-27T05:21:26.133Z,13.00
2018-06-27T05:25:30.579Z,13.10
2018-06-27T05:29:35.263Z,13.30
2018-06-27T05:33:39.507Z,13.20
2018-06-27T05:37:43.753Z,13.30
2018-06-27T05:41:48.020Z,13.30
2018-06-27T05:45:52.296Z,13.40
2018-06-27T05:49:56.799Z,13.50
2018-06-27T05:54:01.025Z,13.60
2018-06-27T05:58:05.367Z,13.80
2018-06-27T06:02:09.594Z,14.00
2018-06-27T06:06:13.958Z,14.20
2018-06-27T06:10:18.260Z,14.40
2018-06-27T06:14:22.751Z,14.50
2018-06-27T06:18:28.217Z,14.60
2018-06-27T06:22:32.445Z,14.80
2018-06-27T06:26:36.728Z,15.00
2018-06-27T06:30:41.040Z,15.00
2018-06-27T06:34:45.325Z,15.10
2018-06-27T06:39:21.460Z,15.20
2018-06-27T06:43:26.457Z,15.40
2018-06-27T06:47:30.745Z,15.50
2018-06-27T06:51:35.041Z,15.50
2018-06-27T06:55:39.317Z,15.60
2018-06-27T06:59:43.646Z,15.60
2018-06-27T07:03:48.303Z,15.60
2018-06-27T07:07:53.018Z,15.50
2018-06-27T07:11:57.908Z,15.70
2018-06-27T07:16:02.443Z,15.90
2018-06-27T07:20:06.705Z,16.10
2018-06-27T07:24:11.128Z,16.30
2018-06-27T07:28:15.413Z,16.50
2018-06-27T07:32:19.811Z,16.60
2018-06-27T07:36:24.137Z,16.80
2018-06-27T07:40:28.385Z,17.10
2018-06-27T07:44:32.864Z,17.30
2018-06-27T07:48:42.644Z,17.50
2018-06-27T07:52:48.321Z,17.80
2018-06-27T07:56:52.638Z,18.30
2018-06-27T08:00:56.858Z,18.60
2018-06-27T08:05:06.984Z,19.10
2018-06-27T08:09:11.636Z,19.20
2018-06-27T08:13:15.885Z,19.40
2018-06-27T08:17:20.182Z,19.20
2018-06-27T08:21:24.497Z,19.20
2018-06-27T08:25:28.761Z,19.40
2018-06-27T08:29:33.065Z,19.30
2018-06-27T08:33:37.303Z,19.10
2018-06-27T08:37:41.632Z,19.30
2018-06-27T08:41:45.963Z,19.30
2018-06-27T08:45:50.551Z,19.50
2018-06-27T08:50:00.203Z,19.70
2018-06-27T08:54:04.443Z,20.30
2018-06-27T08:58:08.678Z,21.00
2018-06-27T09:02:13.090Z,22.10
2018-06-27T09:06:17.461Z,22.90
2018-06-27T09:10:21.758Z,22.60
2018-06-27T09:14:25.986Z,22.70
2018-06-27T09:18:30.260Z,23.70
2018-06-27T09:22:34.838Z,24.30
2018-06-27T09:26:39.092Z,23.10
2018-06-27T09:30:43.418Z,22.60
2018-06-27T09:34:47.629Z,23.40
2018-06-27T09:38:51.996Z,23.50
2018-06-27T09:42:56.455Z,24.80
2018-06-27T09:47:00.713Z,24.40
2018-06-27T09:51:04.992Z,24.90
2018-06-27T09:55:09.461Z,24.00
2018-06-27T09:59:13.707Z,23.70
2018-06-27T10:03:17.909Z,23.70
2018-06-27T10:07:22.184Z,24.70
2018-06-27T10:11:26.639Z,24.60
2018-06-27T10:15:30.954Z,25.50
2018-06-27T10:19:35.410Z,26.40
2018-06-27T10:23:39.653Z,25.80
2018-06-27T10:27:45.032Z,23.90
2018-06-27T10:31:49.253Z,23.50
2018-06-27T10:35:53.498Z,22.80
2018-06-27T10:39:58.027Z,22.40
2018-06-27T10:44:02.255Z,24.20
2018-06-27T10:48:06.682Z,24.50
2018-06-27T10:52:11.048Z,24.60
2018-06-27T10:56:15.317Z,26.00
2018-06-27T11:00:19.542Z,25.90
2018-06-27T11:04:24.041Z,24.20
2018-06-27T11:08:28.271Z,24.40
2018-06-27T11:12:32.733Z,26.20
2018-06-27T11:16:37.341Z,27.10
2018-06-27T11:20:41.622Z,26.10
2018-06-27T11:24:45.966Z,25.60
2018-06-27T11:28:50.524Z,25.30
2018-06-27T11:33:01.022Z,24.30
2018-06-27T11:37:12.111Z,23.90
2018-06-27T11:41:24.286Z,23.90
2018-06-27T11:45:35.279Z,23.70
2018-06-27T11:49:49.177Z,23.80
2018-06-27T11:53:59.292Z,23.90
2018-06-27T11:58:09.657Z,23.50
2018-06-27T12:02:20.511Z,23.30
2018-06-27T12:06:33.731Z,23.10
2018-06-27T12:10:45.657Z,23.20
2018-06-27T12:14:56.775Z,23.10
2018-06-27T12:19:08.646Z,22.90
2018-06-27T12:23:20.540Z,23.30
2018-06-27T12:27:35.741Z,23.60
2018-06-27T12:31:49.059Z,24.70
2018-06-27T12:36:03.237Z,26.30
2018-06-27T12:40:15.307Z,27.40
2018-06-27T12:44:27.969Z,28.00
2018-06-27T12:48:40.260Z,27.30
2018-06-27T12:52:55.301Z,25.20
2018-06-27T12:57:12.043Z,23.90
2018-06-27T13:01:23.309Z,25.70
2018-06-27T13:05:39.702Z,28.30
2018-06-27T13:09:50.192Z,28.90
2018-06-27T13:14:04.768Z,29.30
2018-06-27T13:18:17.167Z,31.00
2018-06-27T13:22:27.710Z,29.30
2018-06-27T13:26:41.612Z,27.00
2018-06-27T13:30:53.395Z,25.40
2018-06-27T13:35:08.142Z,23.90
2018-06-27T13:39:19.787Z,23.10
2018-06-27T13:43:31.688Z,22.90
2018-06-27T13:47:43.601Z,22.80
2018-06-27T13:51:53.275Z,23.90
2018-06-27T13:56:06.414Z,24.70
2018-06-27T14:00:19.453Z,24.90
2018-06-27T14:04:31.092Z,24.30
2018-06-27T14:08:41.664Z,24.00
2018-06-27T14:12:54.651Z,24.00
2018-06-27T14:17:06.741Z,23.70
2018-06-27T14:21:19.080Z,22.70
2018-06-27T14:25:30.648Z,22.20
2018-06-27T14:29:35.033Z,21.60
2018-06-27T14:33:46.621Z,21.40
2018-06-27T14:37:51.098Z,22.30
2018-06-27T14:41:56.613Z,22.80
2018-06-27T14:46:01.103Z,24.90
2018-06-27T14:50:05.669Z,25.80
2018-06-27T14:54:09.923Z,25.70
2018-06-27T14:58:14.272Z,26.80
2018-06-27T15:02:18.702Z,27.00
2018-06-27T15:06:39.007Z,26.30
2018-06-27T15:10:51.090Z,25.10
2018-06-27T15:14:55.487Z,24.00
2018-06-27T15:18:59.904Z,23.20
2018-06-27T15:23:08.305Z,22.30
2018-06-27T15:27:12.878Z,21.40
2018-06-27T15:31:17.203Z,20.70
2018-06-27T15:35:21.666Z,20.20
2018-06-27T15:39:25.906Z,19.90
2018-06-27T15:43:30.405Z,19.80
2018-06-27T15:47:35.038Z,19.80
2018-06-27T15:51:39.567Z,19.80
2018-06-27T15:55:44.145Z,20.00
2018-06-27T15:59:53.425Z,20.10
2018-06-27T16:03:58.169Z,20.10
2018-06-27T16:08:02.723Z,20.90
2018-06-27T16:12:07.182Z,22.60
2018-06-27T16:16:11.626Z,23.70
2018-06-27T16:20:15.850Z,23.20
2018-06-27T16:24:20.155Z,23.10
2018-06-27T16:28:24.612Z,22.60
2018-06-27T16:32:28.913Z,22.30
2018-06-27T16:36:33.277Z,22.00
2018-06-27T16:40:37.815Z,21.40
2018-06-27T16:44:42.626Z,21.00
2018-06-27T16:48:47.087Z,20.50
2018-06-27T16:52:51.569Z,20.10
2018-06-27T16:56:55.847Z,19.70
2018-06-27T17:01:00.330Z,19.60
2018-06-27T17:05:05.015Z,19.50
2018-06-27T17:09:10.390Z,19.60
2018-06-27T17:13:14.868Z,19.70
2018-06-27T17:17:19.221Z,19.60
2018-06-27T17:21:23.542Z,19.50
2018-06-27T17:25:27.987Z,19.40
2018-06-27T17:29:32.194Z,19.40
2018-06-27T17:33:36.438Z,19.20
2018-06-27T17:37:40.772Z,19.10
2018-06-27T17:41:45.104Z,18.90
2018-06-27T17:45:49.593Z,18.90
2018-06-27T17:49:53.867Z,19.00
2018-06-27T17:53:58.135Z,18.80
2018-06-27T17:58:02.492Z,18.70
2018-06-27T18:02:06.825Z,18.80
2018-06-27T18:06:11.069Z,18.90
2018-06-27T18:10:15.378Z,18.80
2018-06-27T18:14:19.598Z,18.50
2018-06-27T18:18:23.925Z,18.60
2018-06-27T18:22:28.209Z,18.60
2018-06-27T18:26:32.483Z,18.70
2018-06-27T18:30:36.895Z,18.60
2018-06-27T18:34:41.733Z,18.50
2018-06-27T18:38:46.108Z,18.30
2018-06-27T18:42:50.674Z,18.10
2018-06-27T18:46:54.883Z,17.80
2018-06-27T18:50:59.262Z,17.60
2018-06-27T18:55:04.632Z,17.40
2018-06-27T18:59:08.938Z,17.20
2018-06-27T19:03:13.409Z,17.10
2018-06-27T19:07:18.107Z,17.00
2018-06-27T19:11:22.681Z,17.10
2018-06-27T19:15:26.906Z,17.30
2018-06-27T19:19:31.189Z,17.60
2018-06-27T19:23:35.678Z,17.80
2018-06-27T19:27:40.098Z,17.90
2018-06-27T19:31:44.439Z,18.00
2018-06-27T19:35:49.816Z,18.10
2018-06-27T19:39:55.328Z,18.10
2018-06-27T19:44:00.313Z,18.10
2018-06-27T19:48:06.224Z,18.10
2018-06-27T19:52:10.894Z,18.00
2018-06-27T19:56:15.188Z,17.90
2018-06-27T20:00:22.393Z,17.70
2018-06-27T20:04:27.082Z,17.70
2018-06-27T20:08:31.521Z,17.50
2018-06-27T20:12:36.218Z,17.20
2018-06-27T20:16:40.609Z,16.70
2018-06-27T20:20:44.906Z,16.30
2018-06-27T20:24:49.161Z,15.70
2018-06-27T20:28:53.685Z,15.40
2018-06-27T20:32:57.897Z,15.00
2018-06-27T20:37:02.246Z,14.80
2018-06-27T20:41:06.518Z,14.60
2018-06-27T20:45:10.737Z,14.50
2018-06-27T20:49:15.002Z,14.40
2018-06-27T20:53:19.364Z,14.50
2018-06-27T20:57:23.619Z,14.50
2018-06-27T21:01:27.904Z,14.40
2018-06-27T21:05:32.305Z,14.40
2018-06-27T21:09:36.581Z,14.40
2018-06-27T21:13:41.040Z,14.40
2018-06-27T21:17:45.524Z,14.40
2018-06-27T21:21:49.842Z,14.40
2018-06-27T21:25:54.414Z,14.40
2018-06-27T21:29:58.614Z,14.30
2018-06-27T21:34:02.883Z,14.30
2018-06-27T21:38:07.246Z,14.30
2018-06-27T21:42:11.498Z,14.30
2018-06-27T21:46:15.788Z,14.30
2018-06-27T21:50:20.204Z,14.30
2018-06-27T21:54:24.535Z,14.20
2018-06-27T21:58:28.827Z,14.30
2018-06-27T22:02:33.259Z,14.20
2018-06-27T22:06:37.507Z,14.20
2018-06-27T22:10:41.883Z,14.20
2018-06-27T22:14:46.129Z,14.00
2018-06-27T22:18:50.385Z,14.00
2018-06-27T22:22:54.744Z,14.10
2018-06-27T22:26:59.107Z,14.00
2018-06-27T22:31:03.362Z,14.00
2018-06-27T22:35:07.589Z,14.00
2018-06-27T22:39:12.427Z,13.90
2018-06-27T22:43:16.699Z,14.00
2018-06-27T22:47:21.112Z,13.80
2018-06-27T22:51:25.388Z,13.70
2018-06-27T22:55:29.684Z,13.80
2018-06-27T22:59:34.121Z,13.90
2018-06-27T23:03:38.346Z,13.70
2018-06-27T23:07:42.635Z,13.70
2018-06-27T23:11:46.903Z,13.70
2018-06-27T23:15:51.238Z,13.60
2018-06-27T23:19:55.571Z,13.60
2018-06-27T23:23:59.819Z,13.80
2018-06-27T23:28:04.071Z,14.00
2018-06-27T23:32:08.366Z,14.10
2018-06-27T23:36:12.825Z,14.00
2018-06-27T23:40:17.276Z,14.10
2018-06-27T23:44:21.574Z,14.20
2018-06-27T23:48:25.820Z,14.20
2018-06-27T23:52:30.312Z,14.30
2018-06-27T23:56:34.711Z,14.30
